sensor_id;sensor_type;location;lat;lon;timestamp;pressure;altitude;pressure_sealevel;temperature;humidity
6694;BME280;3384;42.628;23.380;2022-10-13T00:00:47;94928.03;;;11.43;100.00
6694;BME280;3384;42.628;23.380;2022-10-13T00:03:14;94936.00;;;11.30;100.00
6694;BME280;3384;42.628;23.380;2022-10-13T00:05:42;94935.16;;;11.71;100.00
6694;BME280;3384;42.628;23.380;2022-10-13T00:08:09;94927.63;;;11.73;100.00
6694;BME280;3384;42.628;23.380;2022-10-13T00:10:39;94931.72;;;11.71;100.00
6694;BME280;3384;42.628;23.380;2022-10-13T00:13:06;94936.22;;;11.52;100.00
6694;BME280;3384;42.628;23.380;2022-10-13T00:15:36;94929.53;;;11.31;100.00
6694;BME280;3384;42.628;23.380;2022-10-13T00:18:04;94925.75;;;11.74;100.00
6694;BME280;3384;42.628;23.380;2022-10-13T00:20:31;94929.41;;;11.59;100.00
6694;BME280;3384;42.628;23.380;2022-10-13T00:22:58;94911.94;;;11.80;100.00
6694;BME280;3384;42.628;23.380;2022-10-13T00:25:25;94917.72;;;11.50;100.00
6694;BME280;3384;42.628;23.380;2022-10-13T00:27:53;94915.22;;;11.77;100.00
6694;BME280;3384;42.628;23.380;2022-10-13T00:30:20;94911.34;;;11.46;100.00
6694;BME280;3384;42.628;23.380;2022-10-13T00:32:47;94916.28;;;11.58;100.00
6694;BME280;3384;42.628;23.380;2022-10-13T00:35:14;94917.88;;;11.59;100.00
6694;BME280;3384;42.628;23.380;2022-10-13T00:37:41;94917.56;;;11.23;100.00
6694;BME280;3384;42.628;23.380;2022-10-13T00:40:08;94906.84;;;10.99;100.00
6694;BME280;3384;42.628;23.380;2022-10-13T00:42:35;94902.66;;;11.12;100.00
6694;BME280;3384;42.628;23.380;2022-10-13T00:45:23;94906.09;;;11.17;100.00
6694;BME280;3384;42.628;23.380;2022-10-13T00:47:54;94900.59;;;10.62;100.00
6694;BME280;3384;42.628;23.380;2022-10-13T00:50:24;94893.53;;;10.71;100.00
6694;BME280;3384;42.628;23.380;2022-10-13T00:52:53;94895.97;;;10.91;100.00
6694;BME280;3384;42.628;23.380;2022-10-13T00:55:22;94889.09;;;11.03;100.00
6694;BME280;3384;42.628;23.380;2022-10-13T00:57:52;94900.06;;;11.07;100.00
6694;BME280;3384;42.628;23.380;2022-10-13T01:00:22;94893.97;;;11.01;100.00
6694;BME280;3384;42.628;23.380;2022-10-13T01:02:49;94896.78;;;10.68;100.00
6694;BME280;3384;42.628;23.380;2022-10-13T01:05:17;94890.22;;;10.79;100.00
6694;BME280;3384;42.628;23.380;2022-10-13T01:07:45;94894.00;;;10.78;100.00
6694;BME280;3384;42.628;23.380;2022-10-13T01:10:14;94898.25;;;10.55;100.00
6694;BME280;3384;42.628;23.380;2022-10-13T01:12:54;94886.69;;;10.83;100.00
6694;BME280;3384;42.628;23.380;2022-10-13T01:15:29;94893.41;;;10.57;100.00
6694;BME280;3384;42.628;23.380;2022-10-13T01:18:07;94888.78;;;10.63;100.00
6694;BME280;3384;42.628;23.380;2022-10-13T01:21:01;94892.38;;;10.77;100.00
6694;BME280;3384;42.628;23.380;2022-10-13T01:27:00;94891.31;;;10.78;100.00
6694;BME280;3384;42.628;23.380;2022-10-13T01:32:25;94887.47;;;11.07;100.00
6694;BME280;3384;42.628;23.380;2022-10-13T01:34:59;94891.78;;;11.03;100.00
6694;BME280;3384;42.628;23.380;2022-10-13T01:37:31;94889.13;;;10.80;100.00
6694;BME280;3384;42.628;23.380;2022-10-13T01:40:03;94893.28;;;10.91;100.00
6694;BME280;3384;42.628;23.380;2022-10-13T01:42:36;94887.28;;;10.75;100.00
6694;BME280;3384;42.628;23.380;2022-10-13T01:45:09;94894.31;;;10.71;100.00
6694;BME280;3384;42.628;23.380;2022-10-13T01:47:37;94890.38;;;10.87;100.00
6694;BME280;3384;42.628;23.380;2022-10-13T01:50:06;94889.94;;;10.80;100.00
6694;BME280;3384;42.628;23.380;2022-10-13T01:52:36;94886.56;;;11.12;100.00
6694;BME280;3384;42.628;23.380;2022-10-13T01:55:06;94885.88;;;10.59;100.00
6694;BME280;3384;42.628;23.380;2022-10-13T01:57:34;94888.84;;;10.58;100.00
6694;BME280;3384;42.628;23.380;2022-10-13T02:00:04;94883.41;;;10.63;100.00
6694;BME280;3384;42.628;23.380;2022-10-13T02:02:38;94878.97;;;10.53;100.00
6694;BME280;3384;42.628;23.380;2022-10-13T02:05:13;94881.59;;;10.58;100.00
6694;BME280;3384;42.628;23.380;2022-10-13T02:07:45;94871.97;;;10.57;100.00
6694;BME280;3384;42.628;23.380;2022-10-13T02:10:20;94865.69;;;10.67;100.00
6694;BME280;3384;42.628;23.380;2022-10-13T02:12:49;94869.75;;;11.06;100.00
6694;BME280;3384;42.628;23.380;2022-10-13T02:15:21;94870.56;;;11.07;100.00
6694;BME280;3384;42.628;23.380;2022-10-13T02:17:50;94867.75;;;10.75;100.00
6694;BME280;3384;42.628;23.380;2022-10-13T02:20:19;94863.00;;;11.09;100.00
6694;BME280;3384;42.628;23.380;2022-10-13T02:23:03;94878.97;;;11.19;100.00
6694;BME280;3384;42.628;23.380;2022-10-13T02:25:32;94868.16;;;11.05;100.00
6694;BME280;3384;42.628;23.380;2022-10-13T02:28:00;94870.44;;;11.36;100.00
6694;BME280;3384;42.628;23.380;2022-10-13T02:30:29;94860.97;;;11.01;100.00
6694;BME280;3384;42.628;23.380;2022-10-13T02:32:57;94866.38;;;10.54;100.00
6694;BME280;3384;42.628;23.380;2022-10-13T02:35:24;94866.50;;;10.15;100.00
6694;BME280;3384;42.628;23.380;2022-10-13T02:37:51;94869.06;;;10.54;100.00
6694;BME280;3384;42.628;23.380;2022-10-13T02:40:18;94862.38;;;10.51;100.00
6694;BME280;3384;42.628;23.380;2022-10-13T02:42:45;94863.00;;;10.43;100.00
6694;BME280;3384;42.628;23.380;2022-10-13T02:45:12;94857.56;;;10.25;100.00
6694;BME280;3384;42.628;23.380;2022-10-13T02:47:39;94855.50;;;10.17;100.00
6694;BME280;3384;42.628;23.380;2022-10-13T02:50:08;94859.69;;;10.28;100.00
6694;BME280;3384;42.628;23.380;2022-10-13T02:52:35;94851.88;;;10.03;100.00
6694;BME280;3384;42.628;23.380;2022-10-13T02:55:02;94852.28;;;10.20;100.00
6694;BME280;3384;42.628;23.380;2022-10-13T02:57:29;94845.44;;;10.56;100.00
6694;BME280;3384;42.628;23.380;2022-10-13T02:59:56;94853.91;;;10.16;100.00
6694;BME280;3384;42.628;23.380;2022-10-13T03:02:23;94846.84;;;10.25;100.00
6694;BME280;3384;42.628;23.380;2022-10-13T03:04:51;94844.34;;;10.10;100.00
6694;BME280;3384;42.628;23.380;2022-10-13T03:07:20;94838.97;;;10.10;100.00
6694;BME280;3384;42.628;23.380;2022-10-13T03:09:46;94841.09;;;10.13;100.00
6694;BME280;3384;42.628;23.380;2022-10-13T03:12:13;94844.41;;;10.00;100.00
6694;BME280;3384;42.628;23.380;2022-10-13T03:14:40;94838.72;;;10.35;100.00
6694;BME280;3384;42.628;23.380;2022-10-13T03:17:07;94841.44;;;10.30;100.00
6694;BME280;3384;42.628;23.380;2022-10-13T03:19:34;94848.13;;;10.32;100.00
6694;BME280;3384;42.628;23.380;2022-10-13T03:22:01;94838.88;;;10.67;100.00
6694;BME280;3384;42.628;23.380;2022-10-13T03:24:29;94843.59;;;10.28;100.00
6694;BME280;3384;42.628;23.380;2022-10-13T03:26:56;94852.09;;;10.11;100.00
6694;BME280;3384;42.628;23.380;2022-10-13T03:29:23;94841.44;;;10.01;100.00
6694;BME280;3384;42.628;23.380;2022-10-13T03:31:50;94860.41;;;10.10;100.00
6694;BME280;3384;42.628;23.380;2022-10-13T03:34:16;94859.13;;;10.31;100.00
6694;BME280;3384;42.628;23.380;2022-10-13T03:36:44;94850.00;;;10.32;100.00
6694;BME280;3384;42.628;23.380;2022-10-13T03:39:11;94855.59;;;10.35;100.00
6694;BME280;3384;42.628;23.380;2022-10-13T03:41:40;94850.13;;;10.69;100.00
6694;BME280;3384;42.628;23.380;2022-10-13T03:44:08;94867.91;;;10.36;100.00
6694;BME280;3384;42.628;23.380;2022-10-13T03:46:36;94864.41;;;10.36;100.00
6694;BME280;3384;42.628;23.380;2022-10-13T03:49:03;94858.50;;;10.62;100.00
6694;BME280;3384;42.628;23.380;2022-10-13T03:51:30;94848.81;;;10.66;100.00
6694;BME280;3384;42.628;23.380;2022-10-13T03:53:57;94849.25;;;10.73;100.00
6694;BME280;3384;42.628;23.380;2022-10-13T03:56:25;94853.00;;;10.72;100.00
6694;BME280;3384;42.628;23.380;2022-10-13T03:58:57;94845.88;;;10.63;100.00
6694;BME280;3384;42.628;23.380;2022-10-13T04:01:25;94856.22;;;10.74;100.00
6694;BME280;3384;42.628;23.380;2022-10-13T04:03:53;94850.28;;;10.77;100.00
6694;BME280;3384;42.628;23.380;2022-10-13T04:06:20;94837.28;;;10.66;100.00
6694;BME280;3384;42.628;23.380;2022-10-13T04:08:47;94839.72;;;10.86;100.00
6694;BME280;3384;42.628;23.380;2022-10-13T04:11:15;94836.59;;;10.79;100.00
6694;BME280;3384;42.628;23.380;2022-10-13T04:13:42;94845.72;;;10.78;100.00
6694;BME280;3384;42.628;23.380;2022-10-13T04:16:14;94846.88;;;10.72;100.00
6694;BME280;3384;42.628;23.380;2022-10-13T04:18:41;94838.69;;;10.58;100.00
6694;BME280;3384;42.628;23.380;2022-10-13T04:21:09;94838.78;;;10.53;100.00
6694;BME280;3384;42.628;23.380;2022-10-13T04:23:36;94840.78;;;10.66;100.00
6694;BME280;3384;42.628;23.380;2022-10-13T04:26:04;94838.50;;;10.55;100.00
6694;BME280;3384;42.628;23.380;2022-10-13T04:28:31;94834.16;;;10.59;100.00
6694;BME280;3384;42.628;23.380;2022-10-13T04:31:00;94843.31;;;10.53;100.00
6694;BME280;3384;42.628;23.380;2022-10-13T04:33:29;94833.50;;;10.67;100.00
6694;BME280;3384;42.628;23.380;2022-10-13T04:35:56;94841.34;;;10.40;100.00
6694;BME280;3384;42.628;23.380;2022-10-13T04:38:22;94837.13;;;10.34;100.00
6694;BME280;3384;42.628;23.380;2022-10-13T04:40:49;94839.22;;;10.37;100.00
6694;BME280;3384;42.628;23.380;2022-10-13T04:43:16;94828.97;;;10.44;100.00
6694;BME280;3384;42.628;23.380;2022-10-13T04:45:43;94838.31;;;10.46;100.00
6694;BME280;3384;42.628;23.380;2022-10-13T04:48:10;94827.03;;;10.49;100.00
6694;BME280;3384;42.628;23.380;2022-10-13T04:50:38;94831.09;;;10.47;100.00
6694;BME280;3384;42.628;23.380;2022-10-13T04:53:05;94836.00;;;10.40;100.00
6694;BME280;3384;42.628;23.380;2022-10-13T04:55:34;94834.16;;;10.35;100.00
6694;BME280;3384;42.628;23.380;2022-10-13T04:58:01;94819.50;;;10.51;100.00
6694;BME280;3384;42.628;23.380;2022-10-13T05:00:28;94841.56;;;10.20;100.00
6694;BME280;3384;42.628;23.380;2022-10-13T05:02:55;94849.59;;;10.67;100.00
6694;BME280;3384;42.628;23.380;2022-10-13T05:05:21;94848.53;;;10.68;100.00
6694;BME280;3384;42.628;23.380;2022-10-13T05:07:49;94847.66;;;10.72;100.00
6694;BME280;3384;42.628;23.380;2022-10-13T05:10:16;94846.31;;;10.75;100.00
6694;BME280;3384;42.628;23.380;2022-10-13T05:12:43;94853.69;;;10.83;100.00
6694;BME280;3384;42.628;23.380;2022-10-13T05:15:10;94851.38;;;10.95;100.00
6694;BME280;3384;42.628;23.380;2022-10-13T05:17:37;94856.75;;;10.95;100.00
6694;BME280;3384;42.628;23.380;2022-10-13T05:20:04;94858.81;;;10.79;100.00
6694;BME280;3384;42.628;23.380;2022-10-13T05:22:31;94865.50;;;10.35;100.00
6694;BME280;3384;42.628;23.380;2022-10-13T05:24:59;94871.22;;;9.95;100.00
6694;BME280;3384;42.628;23.380;2022-10-13T05:27:26;94872.75;;;10.01;100.00
6694;BME280;3384;42.628;23.380;2022-10-13T05:29:53;94874.25;;;9.83;100.00
6694;BME280;3384;42.628;23.380;2022-10-13T05:32:20;94869.13;;;9.87;100.00
6694;BME280;3384;42.628;23.380;2022-10-13T05:34:46;94872.47;;;10.07;100.00
6694;BME280;3384;42.628;23.380;2022-10-13T05:37:14;94871.88;;;9.77;100.00
6694;BME280;3384;42.628;23.380;2022-10-13T05:39:42;94882.44;;;9.63;100.00
6694;BME280;3384;42.628;23.380;2022-10-13T05:42:11;94882.19;;;9.60;100.00
6694;BME280;3384;42.628;23.380;2022-10-13T05:44:37;94887.53;;;9.60;100.00
6694;BME280;3384;42.628;23.380;2022-10-13T05:47:04;94886.91;;;9.73;100.00
6694;BME280;3384;42.628;23.380;2022-10-13T05:49:31;94901.13;;;9.68;100.00
6694;BME280;3384;42.628;23.380;2022-10-13T05:52:03;94905.94;;;9.71;100.00
6694;BME280;3384;42.628;23.380;2022-10-13T05:54:34;94909.34;;;9.82;100.00
6694;BME280;3384;42.628;23.380;2022-10-13T05:57:03;94896.72;;;9.87;100.00
6694;BME280;3384;42.628;23.380;2022-10-13T05:59:36;94898.28;;;9.93;100.00
6694;BME280;3384;42.628;23.380;2022-10-13T06:02:06;94894.69;;;10.08;100.00
6694;BME280;3384;42.628;23.380;2022-10-13T06:04:36;94913.47;;;10.03;100.00
6694;BME280;3384;42.628;23.380;2022-10-13T06:07:04;94914.78;;;10.10;100.00
6694;BME280;3384;42.628;23.380;2022-10-13T06:09:33;94904.34;;;10.04;100.00
6694;BME280;3384;42.628;23.380;2022-10-13T06:12:02;94894.03;;;10.21;100.00
6694;BME280;3384;42.628;23.380;2022-10-13T06:14:29;94902.84;;;10.50;100.00
6694;BME280;3384;42.628;23.380;2022-10-13T06:16:58;94902.00;;;10.54;100.00
6694;BME280;3384;42.628;23.380;2022-10-13T06:19:24;94911.34;;;10.57;100.00
6694;BME280;3384;42.628;23.380;2022-10-13T06:21:51;94903.09;;;10.77;100.00
6694;BME280;3384;42.628;23.380;2022-10-13T06:24:18;94899.63;;;10.76;100.00
6694;BME280;3384;42.628;23.380;2022-10-13T06:26:45;94895.44;;;10.65;100.00
6694;BME280;3384;42.628;23.380;2022-10-13T06:29:12;94898.38;;;10.69;100.00
6694;BME280;3384;42.628;23.380;2022-10-13T06:31:38;94903.38;;;10.75;100.00
6694;BME280;3384;42.628;23.380;2022-10-13T06:34:07;94899.34;;;10.78;100.00
6694;BME280;3384;42.628;23.380;2022-10-13T06:36:33;94894.34;;;11.13;100.00
6694;BME280;3384;42.628;23.380;2022-10-13T06:39:00;94896.72;;;11.15;100.00
6694;BME280;3384;42.628;23.380;2022-10-13T06:41:28;94889.66;;;11.24;100.00
6694;BME280;3384;42.628;23.380;2022-10-13T06:43:54;94897.19;;;11.59;100.00
6694;BME280;3384;42.628;23.380;2022-10-13T06:46:21;94889.53;;;11.71;100.00
6694;BME280;3384;42.628;23.380;2022-10-13T06:48:48;94896.81;;;11.71;100.00
6694;BME280;3384;42.628;23.380;2022-10-13T06:51:17;94894.38;;;11.88;100.00
6694;BME280;3384;42.628;23.380;2022-10-13T06:53:44;94892.00;;;11.68;100.00
6694;BME280;3384;42.628;23.380;2022-10-13T06:56:11;94880.81;;;11.79;100.00
6694;BME280;3384;42.628;23.380;2022-10-13T06:58:38;94883.94;;;11.68;100.00
6694;BME280;3384;42.628;23.380;2022-10-13T07:01:05;94882.13;;;11.82;100.00
6694;BME280;3384;42.628;23.380;2022-10-13T07:03:32;94881.75;;;11.88;100.00
6694;BME280;3384;42.628;23.380;2022-10-13T07:06:00;94886.25;;;11.93;100.00
6694;BME280;3384;42.628;23.380;2022-10-13T07:08:28;94887.88;;;12.07;100.00
6694;BME280;3384;42.628;23.380;2022-10-13T07:10:55;94881.63;;;12.12;100.00
6694;BME280;3384;42.628;23.380;2022-10-13T07:13:22;94889.72;;;12.25;100.00
6694;BME280;3384;42.628;23.380;2022-10-13T07:15:49;94882.75;;;12.24;100.00
6694;BME280;3384;42.628;23.380;2022-10-13T07:18:18;94871.16;;;12.42;100.00
6694;BME280;3384;42.628;23.380;2022-10-13T07:20:45;94875.41;;;12.30;100.00
6694;BME280;3384;42.628;23.380;2022-10-13T07:23:12;94876.53;;;12.56;100.00
6694;BME280;3384;42.628;23.380;2022-10-13T07:25:40;94878.97;;;12.25;100.00
6694;BME280;3384;42.628;23.380;2022-10-13T07:28:07;94872.84;;;12.38;100.00
6694;BME280;3384;42.628;23.380;2022-10-13T07:30:34;94881.50;;;12.35;100.00
6694;BME280;3384;42.628;23.380;2022-10-13T07:33:01;94882.06;;;12.32;100.00
6694;BME280;3384;42.628;23.380;2022-10-13T07:35:27;94881.91;;;12.56;100.00
6694;BME280;3384;42.628;23.380;2022-10-13T07:37:54;94881.78;;;12.47;100.00
6694;BME280;3384;42.628;23.380;2022-10-13T07:40:21;94879.41;;;12.46;100.00
6694;BME280;3384;42.628;23.380;2022-10-13T07:42:49;94882.25;;;12.68;100.00
6694;BME280;3384;42.628;23.380;2022-10-13T07:45:16;94884.31;;;12.57;100.00
6694;BME280;3384;42.628;23.380;2022-10-13T07:47:43;94876.94;;;12.49;100.00
6694;BME280;3384;42.628;23.380;2022-10-13T07:50:09;94880.53;;;12.72;100.00
6694;BME280;3384;42.628;23.380;2022-10-13T07:52:36;94879.56;;;12.68;100.00
6694;BME280;3384;42.628;23.380;2022-10-13T07:55:04;94878.66;;;12.86;100.00
6694;BME280;3384;42.628;23.380;2022-10-13T07:57:31;94876.19;;;12.89;100.00
6694;BME280;3384;42.628;23.380;2022-10-13T07:59:59;94884.75;;;12.78;100.00
6694;BME280;3384;42.628;23.380;2022-10-13T08:02:26;94874.94;;;12.68;100.00
6694;BME280;3384;42.628;23.380;2022-10-13T08:04:54;94875.56;;;12.92;100.00
6694;BME280;3384;42.628;23.380;2022-10-13T08:07:21;94877.59;;;13.00;100.00
6694;BME280;3384;42.628;23.380;2022-10-13T08:09:47;94871.00;;;13.20;100.00
6694;BME280;3384;42.628;23.380;2022-10-13T08:12:14;94875.47;;;13.24;100.00
6694;BME280;3384;42.628;23.380;2022-10-13T08:14:41;94871.94;;;13.37;100.00
6694;BME280;3384;42.628;23.380;2022-10-13T08:17:09;94870.56;;;13.26;100.00
6694;BME280;3384;42.628;23.380;2022-10-13T08:19:36;94865.41;;;13.16;100.00
6694;BME280;3384;42.628;23.380;2022-10-13T08:22:03;94873.34;;;13.35;100.00
6694;BME280;3384;42.628;23.380;2022-10-13T08:24:29;94867.56;;;13.28;100.00
6694;BME280;3384;42.628;23.380;2022-10-13T08:26:56;94862.41;;;13.31;100.00
6694;BME280;3384;42.628;23.380;2022-10-13T08:29:23;94868.34;;;13.55;100.00
6694;BME280;3384;42.628;23.380;2022-10-13T08:31:50;94871.72;;;13.47;100.00
6694;BME280;3384;42.628;23.380;2022-10-13T08:34:19;94866.38;;;13.34;100.00
6694;BME280;3384;42.628;23.380;2022-10-13T08:36:46;94863.69;;;13.34;100.00
6694;BME280;3384;42.628;23.380;2022-10-13T08:39:16;94860.56;;;13.40;100.00
6694;BME280;3384;42.628;23.380;2022-10-13T08:41:43;94856.22;;;13.31;100.00
6694;BME280;3384;42.628;23.380;2022-10-13T08:44:18;94850.91;;;13.39;100.00
6694;BME280;3384;42.628;23.380;2022-10-13T08:46:51;94860.50;;;13.67;100.00
6694;BME280;3384;42.628;23.380;2022-10-13T08:49:21;94856.47;;;13.78;100.00
6694;BME280;3384;42.628;23.380;2022-10-13T08:51:47;94856.31;;;13.61;100.00
6694;BME280;3384;42.628;23.380;2022-10-13T08:54:15;94857.81;;;13.89;100.00
6694;BME280;3384;42.628;23.380;2022-10-13T08:56:44;94859.91;;;13.70;100.00
6694;BME280;3384;42.628;23.380;2022-10-13T08:59:16;94854.75;;;13.82;100.00
6694;BME280;3384;42.628;23.380;2022-10-13T09:01:44;94842.66;;;13.94;100.00
6694;BME280;3384;42.628;23.380;2022-10-13T09:04:25;94843.31;;;13.99;100.00
6694;BME280;3384;42.628;23.380;2022-10-13T09:06:55;94840.91;;;14.20;100.00
6694;BME280;3384;42.628;23.380;2022-10-13T09:09:23;94836.94;;;14.17;100.00
6694;BME280;3384;42.628;23.380;2022-10-13T09:11:51;94831.81;;;14.38;100.00
6694;BME280;3384;42.628;23.380;2022-10-13T09:14:23;94829.16;;;14.46;100.00
6694;BME280;3384;42.628;23.380;2022-10-13T09:16:52;94831.56;;;14.48;100.00
6694;BME280;3384;42.628;23.380;2022-10-13T09:19:23;94833.88;;;14.63;100.00
6694;BME280;3384;42.628;23.380;2022-10-13T09:21:53;94835.75;;;14.62;100.00
6694;BME280;3384;42.628;23.380;2022-10-13T09:24:22;94828.75;;;14.53;100.00
6694;BME280;3384;42.628;23.380;2022-10-13T09:27:02;94829.75;;;14.65;100.00
6694;BME280;3384;42.628;23.380;2022-10-13T09:29:29;94819.06;;;14.91;100.00
6694;BME280;3384;42.628;23.380;2022-10-13T09:32:11;94809.41;;;15.15;100.00
6694;BME280;3384;42.628;23.380;2022-10-13T09:34:39;94817.53;;;14.68;100.00
6694;BME280;3384;42.628;23.380;2022-10-13T09:37:17;94803.34;;;15.01;100.00
6694;BME280;3384;42.628;23.380;2022-10-13T09:39:44;94804.31;;;15.14;100.00
6694;BME280;3384;42.628;23.380;2022-10-13T09:42:24;94800.19;;;15.08;100.00
6694;BME280;3384;42.628;23.380;2022-10-13T09:44:57;94789.25;;;15.21;100.00
6694;BME280;3384;42.628;23.380;2022-10-13T09:47:26;94791.19;;;15.46;100.00
6694;BME280;3384;42.628;23.380;2022-10-13T09:50:00;94794.06;;;15.50;100.00
6694;BME280;3384;42.628;23.380;2022-10-13T09:52:29;94793.28;;;15.66;100.00
6694;BME280;3384;42.628;23.380;2022-10-13T09:54:57;94790.09;;;15.39;100.00
6694;BME280;3384;42.628;23.380;2022-10-13T09:57:33;94804.88;;;15.41;100.00
6694;BME280;3384;42.628;23.380;2022-10-13T10:00:10;94795.81;;;15.37;100.00
6694;BME280;3384;42.628;23.380;2022-10-13T10:02:44;94794.06;;;15.50;100.00
6694;BME280;3384;42.628;23.380;2022-10-13T10:05:22;94784.38;;;15.57;100.00
6694;BME280;3384;42.628;23.380;2022-10-13T10:07:51;94783.91;;;15.38;100.00
6694;BME280;3384;42.628;23.380;2022-10-13T10:10:27;94778.00;;;15.53;100.00
6694;BME280;3384;42.628;23.380;2022-10-13T10:12:56;94776.72;;;15.85;100.00
6694;BME280;3384;42.628;23.380;2022-10-13T10:15:25;94777.03;;;15.83;100.00
6694;BME280;3384;42.628;23.380;2022-10-13T10:17:58;94769.91;;;15.70;100.00
6694;BME280;3384;42.628;23.380;2022-10-13T10:20:45;94771.00;;;15.78;100.00
6694;BME280;3384;42.628;23.380;2022-10-13T10:23:21;94761.09;;;16.16;100.00
6694;BME280;3384;42.628;23.380;2022-10-13T10:25:56;94765.94;;;15.59;100.00
6694;BME280;3384;42.628;23.380;2022-10-13T10:31:33;94763.97;;;15.94;100.00
6694;BME280;3384;42.628;23.380;2022-10-13T10:34:18;94755.22;;;15.97;100.00
6694;BME280;3384;42.628;23.380;2022-10-13T10:36:59;94750.25;;;16.24;100.00
6694;BME280;3384;42.628;23.380;2022-10-13T10:39:38;94746.50;;;16.46;100.00
6694;BME280;3384;42.628;23.380;2022-10-13T10:42:16;94751.19;;;16.20;100.00
6694;BME280;3384;42.628;23.380;2022-10-13T10:44:47;94736.94;;;16.57;100.00
6694;BME280;3384;42.628;23.380;2022-10-13T10:47:20;94737.88;;;16.61;100.00
6694;BME280;3384;42.628;23.380;2022-10-13T10:49:49;94731.53;;;16.57;100.00
6694;BME280;3384;42.628;23.380;2022-10-13T10:52:23;94729.34;;;16.80;100.00
6694;BME280;3384;42.628;23.380;2022-10-13T10:54:57;94726.78;;;16.75;100.00
6694;BME280;3384;42.628;23.380;2022-10-13T10:57:36;94723.13;;;16.50;100.00
6694;BME280;3384;42.628;23.380;2022-10-13T11:00:12;94721.97;;;16.80;100.00
6694;BME280;3384;42.628;23.380;2022-10-13T11:02:46;94714.28;;;16.62;100.00
6694;BME280;3384;42.628;23.380;2022-10-13T11:05:19;94712.06;;;16.84;100.00
6694;BME280;3384;42.628;23.380;2022-10-13T11:08:01;94716.28;;;16.73;100.00
6694;BME280;3384;42.628;23.380;2022-10-13T11:10:29;94711.44;;;16.87;100.00
6694;BME280;3384;42.628;23.380;2022-10-13T11:15:46;94696.16;;;16.83;100.00
6694;BME280;3384;42.628;23.380;2022-10-13T11:21:16;94684.25;;;17.45;100.00
6694;BME280;3384;42.628;23.380;2022-10-13T11:23:44;94692.00;;;17.67;100.00
6694;BME280;3384;42.628;23.380;2022-10-13T11:26:42;94677.94;;;17.53;100.00
6694;BME280;3384;42.628;23.380;2022-10-13T11:29:17;94676.31;;;17.73;100.00
6694;BME280;3384;42.628;23.380;2022-10-13T11:31:50;94675.47;;;17.48;100.00
6694;BME280;3384;42.628;23.380;2022-10-13T11:34:27;94675.97;;;17.62;100.00
6694;BME280;3384;42.628;23.380;2022-10-13T11:36:56;94672.38;;;17.70;100.00
6694;BME280;3384;42.628;23.380;2022-10-13T11:46:02;94659.09;;;17.89;98.63
6694;BME280;3384;42.628;23.380;2022-10-13T11:48:43;94659.63;;;17.83;96.17
6694;BME280;3384;42.628;23.380;2022-10-13T11:51:26;94661.03;;;17.56;99.74
6694;BME280;3384;42.628;23.380;2022-10-13T11:54:03;94650.09;;;17.65;98.22
6694;BME280;3384;42.628;23.380;2022-10-13T11:56:34;94647.34;;;17.85;97.19
6694;BME280;3384;42.628;23.380;2022-10-13T11:59:03;94642.63;;;18.06;92.73
6694;BME280;3384;42.628;23.380;2022-10-13T12:01:32;94646.72;;;18.24;91.70
6694;BME280;3384;42.628;23.380;2022-10-13T12:04:12;94640.72;;;18.19;91.93
6694;BME280;3384;42.628;23.380;2022-10-13T12:06:40;94641.28;;;18.24;91.01
6694;BME280;3384;42.628;23.380;2022-10-13T12:09:15;94635.84;;;18.12;92.99
6694;BME280;3384;42.628;23.380;2022-10-13T12:11:43;94641.50;;;17.95;95.98
6694;BME280;3384;42.628;23.380;2022-10-13T12:14:19;94632.91;;;18.29;92.60
6694;BME280;3384;42.628;23.380;2022-10-13T12:16:54;94632.44;;;18.03;93.38
6694;BME280;3384;42.628;23.380;2022-10-13T12:19:23;94636.28;;;18.26;92.80
6694;BME280;3384;42.628;23.380;2022-10-13T12:21:52;94634.31;;;18.35;90.83
6694;BME280;3384;42.628;23.380;2022-10-13T12:24:21;94636.06;;;17.95;95.37
6694;BME280;3384;42.628;23.380;2022-10-13T12:26:49;94636.88;;;18.08;94.41
6694;BME280;3384;42.628;23.380;2022-10-13T12:29:17;94638.78;;;18.07;92.90
6694;BME280;3384;42.628;23.380;2022-10-13T12:31:46;94638.00;;;18.31;92.54
6694;BME280;3384;42.628;23.380;2022-10-13T12:34:22;94645.84;;;17.76;98.04
6694;BME280;3384;42.628;23.380;2022-10-13T12:36:58;94641.91;;;17.85;97.04
6694;BME280;3384;42.628;23.380;2022-10-13T12:39:27;94630.28;;;17.85;98.50
6694;BME280;3384;42.628;23.380;2022-10-13T12:41:57;94632.25;;;17.64;100.00
6694;BME280;3384;42.628;23.380;2022-10-13T12:44:26;94626.69;;;17.48;100.00
6694;BME280;3384;42.628;23.380;2022-10-13T12:46:55;94627.34;;;17.45;100.00
6694;BME280;3384;42.628;23.380;2022-10-13T12:49:26;94617.78;;;17.60;100.00
6694;BME280;3384;42.628;23.380;2022-10-13T12:51:57;94616.34;;;17.62;100.00
6694;BME280;3384;42.628;23.380;2022-10-13T12:54:31;94614.91;;;17.77;100.00
6694;BME280;3384;42.628;23.380;2022-10-13T12:57:00;94621.75;;;17.74;100.00
6694;BME280;3384;42.628;23.380;2022-10-13T12:59:29;94614.53;;;17.66;100.00
6694;BME280;3384;42.628;23.380;2022-10-13T13:01:59;94615.41;;;17.58;100.00
6694;BME280;3384;42.628;23.380;2022-10-13T13:04:39;94609.19;;;17.58;100.00
6694;BME280;3384;42.628;23.380;2022-10-13T13:07:25;94601.25;;;17.85;100.00
6694;BME280;3384;42.628;23.380;2022-10-13T13:10:02;94599.91;;;18.03;95.93
6694;BME280;3384;42.628;23.380;2022-10-13T13:12:29;94608.06;;;18.27;94.29
6694;BME280;3384;42.628;23.380;2022-10-13T13:14:56;94600.59;;;18.24;94.33
6694;BME280;3384;42.628;23.380;2022-10-13T13:17:26;94594.72;;;18.10;95.11
6694;BME280;3384;42.628;23.380;2022-10-13T13:19:55;94596.63;;;18.34;92.07
6694;BME280;3384;42.628;23.380;2022-10-13T13:22:23;94602.19;;;18.49;89.57
6694;BME280;3384;42.628;23.380;2022-10-13T13:24:50;94594.47;;;18.03;95.46
6694;BME280;3384;42.628;23.380;2022-10-13T13:27:22;94599.13;;;18.51;90.39
6694;BME280;3384;42.628;23.380;2022-10-13T13:29:50;94595.28;;;18.52;89.56
6694;BME280;3384;42.628;23.380;2022-10-13T13:32:18;94591.78;;;18.39;90.07
6694;BME280;3384;42.628;23.380;2022-10-13T13:34:45;94601.38;;;18.49;90.10
6694;BME280;3384;42.628;23.380;2022-10-13T13:37:19;94603.31;;;18.48;90.63